createdAt,value
2022-10-25T00:01:17.898Z,34.17
2022-10-25T00:03:47.125Z,48.70
2022-10-25T00:06:16.342Z,43.65
2022-10-25T00:08:43.562Z,39.38
2022-10-25T00:11:20.744Z,41.25
2022-10-25T00:13:56.654Z,43.88
2022-10-25T00:16:27.752Z,36.58
2022-10-25T00:18:54.991Z,40.00
2022-10-25T00:21:22.014Z,51.60
2022-10-25T00:23:49.266Z,39.10
2022-10-25T00:26:16.446Z,44.47
2022-10-25T00:28:43.687Z,38.47
2022-10-25T00:31:16.937Z,45.78
2022-10-25T00:33:45.264Z,45.40
2022-10-25T00:36:18.994Z,36.03
2022-10-25T00:38:46.401Z,41.42
2022-10-25T00:41:15.814Z,33.40
2022-10-25T00:43:55.675Z,37.40
2022-10-25T00:46:29.334Z,29.90
2022-10-25T00:49:02.439Z,44.30
2022-10-25T00:51:35.164Z,37.38
2022-10-25T00:54:02.084Z,45.97
2022-10-25T00:56:34.098Z,34.72
2022-10-25T00:59:09.222Z,42.30
2022-10-25T01:01:37.520Z,41.97
2022-10-25T01:04:08.287Z,37.38
2022-10-25T01:06:38.799Z,45.50
2022-10-25T01:09:07.255Z,45.35
2022-10-25T01:11:36.254Z,38.08
2022-10-25T01:14:03.854Z,49.53
2022-10-25T01:16:48.934Z,34.25
2022-10-25T01:19:24.744Z,42.10
2022-10-25T01:21:57.746Z,32.07
2022-10-25T01:25:07.606Z,36.80
2022-10-25T01:28:05.407Z,41.53
2022-10-25T01:31:00.687Z,43.63
2022-10-25T01:33:40.394Z,33.20
2022-10-25T01:38:47.964Z,42.83
2022-10-25T01:41:24.962Z,37.53
2022-10-25T01:43:51.762Z,31.90
2022-10-25T01:46:18.543Z,32.63
2022-10-25T01:48:52.223Z,38.58
2022-10-25T01:51:19.072Z,42.40
2022-10-25T01:53:51.906Z,40.78
2022-10-25T01:56:24.672Z,35.05
2022-10-25T01:59:29.398Z,40.78
2022-10-25T02:01:59.043Z,33.15
2022-10-25T02:04:37.765Z,27.55
2022-10-25T02:07:53.970Z,31.30
2022-10-25T02:10:29.613Z,31.95
2022-10-25T02:13:03.183Z,31.43
2022-10-25T02:15:35.862Z,30.88
2022-10-25T02:18:07.238Z,30.02
2022-10-25T02:20:36.046Z,44.97
2022-10-25T02:23:06.344Z,32.95
2022-10-25T02:25:35.253Z,49.13
2022-10-25T02:28:09.143Z,29.10
2022-10-25T02:30:38.262Z,24.85
2022-10-25T02:33:05.569Z,29.73
2022-10-25T02:35:34.305Z,29.08
2022-10-25T02:38:01.871Z,37.58
2022-10-25T02:40:29.208Z,30.27
2022-10-25T02:42:56.137Z,33.20
2022-10-25T02:45:23.487Z,30.35
2022-10-25T02:47:50.443Z,29.90
2022-10-25T02:50:17.512Z,29.65
2022-10-25T02:52:44.707Z,39.10
2022-10-25T02:55:11.832Z,32.05
2022-10-25T02:57:38.882Z,30.40
2022-10-25T03:00:07.866Z,30.88
2022-10-25T03:02:34.735Z,37.17
2022-10-25T03:05:01.600Z,30.48
2022-10-25T03:07:28.577Z,36.20
2022-10-25T03:09:55.463Z,37.83
2022-10-25T03:12:22.505Z,42.70
2022-10-25T03:14:49.790Z,32.67
2022-10-25T03:17:16.599Z,28.27
2022-10-25T03:19:43.571Z,31.17
2022-10-25T03:22:10.503Z,29.05
2022-10-25T03:24:37.322Z,38.88
2022-10-25T03:27:04.162Z,38.03
2022-10-25T03:29:31.142Z,35.42
2022-10-25T03:31:58.052Z,37.67
2022-10-25T03:34:27.363Z,38.05
2022-10-25T03:36:54.201Z,33.45
2022-10-25T03:39:21.122Z,31.50
2022-10-25T03:41:48.022Z,33.53
2022-10-25T03:44:15.032Z,41.03
2022-10-25T03:46:43.416Z,31.08
2022-10-25T03:49:10.381Z,31.73
2022-10-25T03:51:37.253Z,35.13
2022-10-25T03:54:05.362Z,33.47
2022-10-25T03:56:32.211Z,32.42
2022-10-25T03:58:59.341Z,39.08
2022-10-25T04:01:26.686Z,34.08
2022-10-25T04:03:53.504Z,37.30
2022-10-25T04:06:20.553Z,34.47
2022-10-25T04:08:47.343Z,44.42
2022-10-25T04:11:14.223Z,37.05
2022-10-25T04:13:41.087Z,45.15
2022-10-25T04:16:09.061Z,37.47
2022-10-25T04:18:36.492Z,41.90
2022-10-25T04:21:03.432Z,31.67
2022-10-25T04:23:31.512Z,35.75
2022-10-25T04:25:58.630Z,41.50
2022-10-25T04:28:25.840Z,35.63
2022-10-25T04:30:52.719Z,43.20
2022-10-25T04:33:19.572Z,38.55
2022-10-25T04:35:57.174Z,40.78
2022-10-25T04:38:24.530Z,36.15
2022-10-25T04:40:58.941Z,38.17
2022-10-25T04:43:27.762Z,46.30
2022-10-25T04:45:55.157Z,35.25
2022-10-25T04:48:24.402Z,36.63
2022-10-25T04:50:51.367Z,35.80
2022-10-25T04:53:18.255Z,42.40
2022-10-25T04:55:45.188Z,33.92
2022-10-25T04:58:11.951Z,44.05
2022-10-25T05:00:38.822Z,34.17
2022-10-25T05:03:09.529Z,42.22
2022-10-25T05:05:39.843Z,33.03
2022-10-25T05:08:06.667Z,37.47
2022-10-25T05:10:33.475Z,36.08
2022-10-25T05:13:18.795Z,36.63
2022-10-25T05:15:45.661Z,41.85
2022-10-25T05:18:12.494Z,33.60
2022-10-25T05:20:39.490Z,42.97
2022-10-25T05:23:06.289Z,34.22
2022-10-25T05:25:33.185Z,45.10
2022-10-25T05:28:00.193Z,37.50
2022-10-25T05:30:27.090Z,43.40
2022-10-25T05:32:54.322Z,50.67
2022-10-25T05:35:24.434Z,37.00
2022-10-25T05:37:52.455Z,34.35
2022-10-25T05:40:19.349Z,42.20
2022-10-25T05:42:48.799Z,39.75
2022-10-25T05:45:16.181Z,33.25
2022-10-25T05:47:43.104Z,44.05
2022-10-25T05:50:10.143Z,28.90
2022-10-25T05:52:37.125Z,36.92
2022-10-25T05:55:04.109Z,35.85
2022-10-25T05:57:31.267Z,38.80
2022-10-25T05:59:58.044Z,33.92
2022-10-25T06:02:25.075Z,36.53
2022-10-25T06:05:10.949Z,36.25
2022-10-25T06:07:37.861Z,37.65
2022-10-25T06:10:09.573Z,47.78
2022-10-25T06:12:37.628Z,51.53
2022-10-25T06:15:23.285Z,43.35
2022-10-25T06:17:50.140Z,48.28
2022-10-25T06:20:17.005Z,55.17
2022-10-25T06:22:44.125Z,38.20
2022-10-25T06:25:11.217Z,41.22
2022-10-25T06:27:38.074Z,39.33
2022-10-25T06:30:05.631Z,41.72
2022-10-25T06:32:32.519Z,56.92
2022-10-25T06:34:59.450Z,50.53
2022-10-25T06:37:26.318Z,49.53
2022-10-25T06:39:53.194Z,43.55
2022-10-25T06:42:20.074Z,46.75
2022-10-25T06:44:46.966Z,39.95
2022-10-25T06:47:18.094Z,45.70
2022-10-25T06:49:46.094Z,42.70
2022-10-25T06:52:13.354Z,49.90
2022-10-25T06:54:40.275Z,37.88
2022-10-25T06:57:07.215Z,43.90
2022-10-25T06:59:34.066Z,48.03
2022-10-25T07:02:01.054Z,66.25
2022-10-25T07:04:28.108Z,69.45
2022-10-25T07:06:55.559Z,66.93
2022-10-25T07:09:22.585Z,63.90
2022-10-25T07:11:50.787Z,67.82
2022-10-25T07:14:17.669Z,61.17
2022-10-25T07:16:44.785Z,81.47
2022-10-25T07:19:11.644Z,54.17
2022-10-25T07:21:38.552Z,53.22
2022-10-25T07:24:05.755Z,37.38
2022-10-25T07:26:35.958Z,40.60
2022-10-25T07:29:04.538Z,36.65
2022-10-25T07:31:34.096Z,43.00
2022-10-25T07:34:02.375Z,37.35
2022-10-25T07:36:30.614Z,50.20
2022-10-25T07:38:58.674Z,40.70
2022-10-25T07:41:26.902Z,46.67
2022-10-25T07:43:53.829Z,48.40
2022-10-25T07:46:20.854Z,34.63
2022-10-25T07:48:47.784Z,34.35
2022-10-25T07:51:17.404Z,35.63
2022-10-25T07:54:03.098Z,42.75
2022-10-25T07:56:30.483Z,40.47
2022-10-25T07:58:58.033Z,37.70
2022-10-25T08:01:28.219Z,44.65
2022-10-25T08:03:55.874Z,44.50
2022-10-25T08:06:24.116Z,43.03
2022-10-25T08:08:51.025Z,39.10
2022-10-25T08:11:18.034Z,57.50
2022-10-25T08:13:44.965Z,58.45
2022-10-25T08:16:12.044Z,52.78
2022-10-25T08:18:38.896Z,55.53
2022-10-25T08:21:06.417Z,52.05
2022-10-25T08:23:33.517Z,52.92
2022-10-25T08:26:01.655Z,43.05
2022-10-25T08:28:30.944Z,37.72
2022-10-25T08:30:58.393Z,59.63
2022-10-25T08:33:25.285Z,36.28
2022-10-25T08:35:52.203Z,41.05
2022-10-25T08:38:19.092Z,33.03
2022-10-25T08:41:17.465Z,41.72
2022-10-25T08:43:56.227Z,27.65
2022-10-25T08:46:33.278Z,27.40
2022-10-25T08:49:27.355Z,28.48
2022-10-25T08:51:56.612Z,31.42
2022-10-25T08:54:37.744Z,31.02
2022-10-25T08:57:26.464Z,40.75
2022-10-25T09:00:10.713Z,25.80
2022-10-25T09:02:47.116Z,27.02
2022-10-25T09:05:25.444Z,30.00
2022-10-25T09:08:32.838Z,31.58
2022-10-25T09:11:26.087Z,30.02
2022-10-25T09:14:10.613Z,24.90
2022-10-25T09:16:51.722Z,35.75
2022-10-25T09:19:44.625Z,26.10
2022-10-25T09:22:31.701Z,30.98
2022-10-25T09:25:10.748Z,20.90
2022-10-25T09:27:43.463Z,21.05
2022-10-25T09:30:12.564Z,26.25
2022-10-25T09:33:06.077Z,24.05
2022-10-25T09:35:53.729Z,21.58
2022-10-25T09:38:39.076Z,23.75
2022-10-25T09:41:12.968Z,20.83
2022-10-25T09:43:45.686Z,24.70
2022-10-25T09:46:18.456Z,28.77
2022-10-25T09:48:53.139Z,38.25
2022-10-25T09:51:55.240Z,21.90
2022-10-25T09:54:31.842Z,29.15
2022-10-25T09:56:59.265Z,19.70
2022-10-25T09:59:28.254Z,14.20
2022-10-25T10:01:55.382Z,21.55
2022-10-25T10:04:40.062Z,19.83
2022-10-25T10:07:22.912Z,17.85
2022-10-25T10:09:51.960Z,19.27
2022-10-25T10:12:48.336Z,28.08
2022-10-25T10:15:21.453Z,28.15
2022-10-25T10:18:01.042Z,23.35
2022-10-25T10:20:27.986Z,22.08
2022-10-25T10:22:55.010Z,19.33
2022-10-25T10:25:26.395Z,22.17
2022-10-25T10:27:56.755Z,19.58
2022-10-25T10:30:29.766Z,22.15
2022-10-25T10:33:01.817Z,26.17
2022-10-25T10:35:36.988Z,29.20
2022-10-25T10:38:30.078Z,18.33
2022-10-25T10:41:26.936Z,24.50
2022-10-25T10:44:14.167Z,21.17
2022-10-25T10:46:46.599Z,19.98
2022-10-25T10:49:15.212Z,22.92
2022-10-25T10:51:45.429Z,23.60
2022-10-25T10:54:26.571Z,20.40
2022-10-25T10:57:01.920Z,19.60
2022-10-25T10:59:31.629Z,19.13
2022-10-25T11:02:17.839Z,18.08
2022-10-25T11:04:53.574Z,21.20
2022-10-25T11:07:42.448Z,22.97
2022-10-25T11:10:15.368Z,19.33
2022-10-25T11:12:43.396Z,21.77
2022-10-25T11:15:14.006Z,24.05
2022-10-25T11:17:54.083Z,26.85
2022-10-25T11:20:48.982Z,25.75
2022-10-25T11:23:39.587Z,18.88
2022-10-25T11:26:35.806Z,23.63
2022-10-25T11:29:23.366Z,20.13
2022-10-25T11:32:01.491Z,13.55
2022-10-25T11:34:43.427Z,18.55
2022-10-25T11:37:15.858Z,19.73
2022-10-25T11:40:01.952Z,18.08
2022-10-25T11:42:50.705Z,13.77
2022-10-25T11:45:32.530Z,21.42
2022-10-25T11:48:19.807Z,17.98
2022-10-25T11:51:43.877Z,23.83
2022-10-25T11:54:34.496Z,22.75
2022-10-25T11:57:32.565Z,17.40
2022-10-25T12:00:07.259Z,19.88
2022-10-25T12:02:43.786Z,24.55
2022-10-25T12:05:25.973Z,20.80
2022-10-25T12:08:37.396Z,28.92
2022-10-25T12:11:09.003Z,16.27
2022-10-25T12:13:42.716Z,25.73
2022-10-25T12:16:17.023Z,22.00
2022-10-25T12:19:06.646Z,22.35
2022-10-25T12:21:43.630Z,24.15
2022-10-25T12:24:23.677Z,19.42
2022-10-25T12:26:54.003Z,19.10
2022-10-25T12:29:26.628Z,24.40
2022-10-25T12:31:58.054Z,27.25
2022-10-25T12:34:43.366Z,28.98
2022-10-25T12:37:39.188Z,17.42
2022-10-25T12:40:14.949Z,22.10
2022-10-25T12:42:49.890Z,17.45
2022-10-25T12:45:48.806Z,12.95
2022-10-25T12:48:46.276Z,30.27
2022-10-25T12:54:14.668Z,21.60
2022-10-25T12:57:02.580Z,16.58
2022-10-25T12:59:54.278Z,15.80
2022-10-25T13:02:58.251Z,25.40
2022-10-25T13:06:02.047Z,11.93
2022-10-25T13:08:29.835Z,12.45
2022-10-25T13:11:00.215Z,7.50
2022-10-25T13:13:31.142Z,14.82
2022-10-25T13:16:01.263Z,13.40
2022-10-25T13:18:40.328Z,16.88
2022-10-25T13:21:10.333Z,16.42
2022-10-25T13:23:43.232Z,10.15
2022-10-25T13:26:32.171Z,14.02
2022-10-25T13:29:23.243Z,14.55
2022-10-25T13:31:58.902Z,19.50
2022-10-25T13:34:34.569Z,11.50
2022-10-25T13:37:03.990Z,11.50
2022-10-25T13:39:43.398Z,12.13
2022-10-25T13:42:16.267Z,10.60
2022-10-25T13:44:59.727Z,14.80
2022-10-25T13:47:47.205Z,12.93
2022-10-25T13:50:31.024Z,20.67
2022-10-25T13:53:14.805Z,10.40
2022-10-25T13:55:48.079Z,10.82
2022-10-25T13:58:32.109Z,21.35
2022-10-25T14:01:17.714Z,10.98
2022-10-25T14:04:02.809Z,18.63
2022-10-25T14:06:52.264Z,11.43
2022-10-25T14:09:52.204Z,12.02
2022-10-25T14:12:21.668Z,22.30
2022-10-25T14:14:48.366Z,17.83
2022-10-25T14:17:31.595Z,15.60
2022-10-25T14:20:02.997Z,12.00
2022-10-25T14:22:38.486Z,15.73
2022-10-25T14:25:15.133Z,13.27
2022-10-25T14:27:42.007Z,15.10
2022-10-25T14:30:27.490Z,14.43
2022-10-25T14:33:03.953Z,13.93
2022-10-25T14:38:16.345Z,17.08
2022-10-25T14:40:51.554Z,11.48
2022-10-25T14:43:38.334Z,21.75
2022-10-25T14:46:14.300Z,15.32
2022-10-25T14:48:45.422Z,23.05
2022-10-25T14:51:21.734Z,18.70
2022-10-25T14:53:56.000Z,9.75
2022-10-25T14:56:30.568Z,20.38
2022-10-25T14:58:57.957Z,12.05
2022-10-25T15:01:25.397Z,17.33
2022-10-25T15:03:54.857Z,12.50
2022-10-25T15:06:25.287Z,13.13
2022-10-25T15:09:16.142Z,14.55
2022-10-25T15:12:04.387Z,14.65
2022-10-25T15:14:31.651Z,15.85
2022-10-25T15:17:03.071Z,12.20
2022-10-25T15:19:29.923Z,17.02
2022-10-25T15:22:07.743Z,12.90
2022-10-25T15:24:44.819Z,15.52
2022-10-25T15:27:35.464Z,16.83
2022-10-25T15:30:05.000Z,16.65
2022-10-25T15:32:33.576Z,12.40
2022-10-25T15:35:01.953Z,13.45
2022-10-25T15:37:30.134Z,17.30
2022-10-25T15:39:57.647Z,15.50
2022-10-25T15:42:26.181Z,12.80
2022-10-25T15:44:53.066Z,15.73
2022-10-25T15:47:34.893Z,22.42
2022-10-25T15:50:03.880Z,17.60
2022-10-25T15:52:30.857Z,14.02
2022-10-25T15:54:57.665Z,19.85
2022-10-25T15:57:27.496Z,16.80
2022-10-25T15:59:54.331Z,15.35
2022-10-25T16:02:27.210Z,15.00
2022-10-25T16:04:54.248Z,21.17
2022-10-25T16:07:21.046Z,18.52
2022-10-25T16:09:47.926Z,20.83
2022-10-25T16:12:21.694Z,16.17
2022-10-25T16:14:50.674Z,16.75
2022-10-25T16:17:17.521Z,15.55
2022-10-25T16:19:44.371Z,16.75
2022-10-25T16:22:11.144Z,15.32
2022-10-25T16:24:38.282Z,15.15
2022-10-25T16:27:05.178Z,13.90
2022-10-25T16:29:32.104Z,19.73
2022-10-25T16:31:59.101Z,16.42
2022-10-25T16:34:25.967Z,18.00
2022-10-25T16:36:52.954Z,24.95
2022-10-25T16:39:19.912Z,23.58
2022-10-25T16:41:47.841Z,18.77
2022-10-25T16:44:19.453Z,20.88
2022-10-25T16:46:46.752Z,25.77
2022-10-25T16:49:13.815Z,19.88
2022-10-25T16:51:41.072Z,20.83
2022-10-25T16:54:08.226Z,26.15
2022-10-25T16:56:35.891Z,21.95
2022-10-25T16:59:03.393Z,21.65
2022-10-25T17:01:40.019Z,22.10
2022-10-25T17:04:10.794Z,21.60
2022-10-25T17:06:42.008Z,24.45
2022-10-25T17:09:09.614Z,40.15
2022-10-25T17:11:37.686Z,33.53
2022-10-25T17:14:04.722Z,21.38
2022-10-25T17:16:31.776Z,23.48
2022-10-25T17:18:58.739Z,28.08
2022-10-25T17:21:25.582Z,19.65
2022-10-25T17:23:52.355Z,20.63
2022-10-25T17:26:19.239Z,21.85
2022-10-25T17:28:46.076Z,21.25
2022-10-25T17:31:14.663Z,20.63
2022-10-25T17:33:42.694Z,20.95
2022-10-25T17:36:12.189Z,23.80
2022-10-25T17:38:39.052Z,25.10
2022-10-25T17:41:06.431Z,26.60
2022-10-25T17:43:35.963Z,33.38
2022-10-25T17:46:08.274Z,21.77
2022-10-25T17:48:35.750Z,25.20
2022-10-25T17:51:04.653Z,39.92
2022-10-25T17:53:31.632Z,41.47
2022-10-25T17:55:58.515Z,28.30
2022-10-25T17:58:26.061Z,30.02
2022-10-25T18:00:54.607Z,30.23
2022-10-25T18:03:21.614Z,26.58
2022-10-25T18:05:48.624Z,26.33
2022-10-25T18:08:15.921Z,23.38
2022-10-25T18:10:42.942Z,33.42
2022-10-25T18:13:09.714Z,35.63
2022-10-25T18:15:38.393Z,27.27
2022-10-25T18:18:05.383Z,30.70
2022-10-25T18:20:32.448Z,33.55
2022-10-25T18:22:59.231Z,32.90
2022-10-25T18:25:26.073Z,31.10
2022-10-25T18:27:52.831Z,25.52
2022-10-25T18:30:19.635Z,24.73
2022-10-25T18:32:46.518Z,34.00
2022-10-25T18:35:13.343Z,25.90
2022-10-25T18:37:40.322Z,29.92
2022-10-25T18:40:08.583Z,25.90
2022-10-25T18:42:36.090Z,33.90
2022-10-25T18:45:04.252Z,31.42
2022-10-25T18:47:31.165Z,26.08
2022-10-25T18:49:58.015Z,25.67
2022-10-25T18:52:24.910Z,26.33
2022-10-25T18:54:55.284Z,24.20
2022-10-25T18:57:22.148Z,25.92
2022-10-25T18:59:48.987Z,52.83
2022-10-25T19:02:16.053Z,37.72
2022-10-25T19:04:42.998Z,58.60
2022-10-25T19:07:09.761Z,60.53
2022-10-25T19:09:36.548Z,58.92
2022-10-25T19:12:03.392Z,59.70
2022-10-25T19:14:30.156Z,62.78
2022-10-25T19:16:57.004Z,59.70
2022-10-25T19:19:23.755Z,54.30
2022-10-25T19:21:50.647Z,55.08
2022-10-25T19:24:17.691Z,50.92
2022-10-25T19:26:45.077Z,47.22
2022-10-25T19:29:11.937Z,54.22
2022-10-25T19:31:38.820Z,42.67
2022-10-25T19:34:05.662Z,45.00
2022-10-25T19:36:32.562Z,39.35
2022-10-25T19:39:00.001Z,38.78
2022-10-25T19:41:26.848Z,36.92
2022-10-25T19:43:53.875Z,39.45
2022-10-25T19:46:21.654Z,39.15
2022-10-25T19:48:48.678Z,46.90
2022-10-25T19:51:18.711Z,42.63
2022-10-25T19:53:46.065Z,41.80
2022-10-25T19:56:18.333Z,53.08
2022-10-25T19:58:45.610Z,53.03
2022-10-25T20:01:16.045Z,49.42
2022-10-25T20:03:44.573Z,56.33
2022-10-25T20:06:18.869Z,52.38
2022-10-25T20:08:48.715Z,62.03
2022-10-25T20:11:17.127Z,62.78
2022-10-25T20:13:44.376Z,69.93
2022-10-25T20:16:13.950Z,61.90
2022-10-25T20:18:42.158Z,64.63
2022-10-25T20:21:17.916Z,59.65
2022-10-25T20:23:49.901Z,58.17
2022-10-25T20:26:22.734Z,58.13
2022-10-25T20:31:26.319Z,68.72
2022-10-25T20:33:54.445Z,60.50
2022-10-25T20:36:21.464Z,69.13
2022-10-25T20:38:48.479Z,53.85
2022-10-25T20:41:18.543Z,52.45
2022-10-25T20:43:48.097Z,49.38
2022-10-25T20:46:15.997Z,35.10
2022-10-25T20:48:43.154Z,37.85
2022-10-25T20:51:11.537Z,32.97
2022-10-25T20:53:42.991Z,33.60
2022-10-25T20:56:10.153Z,33.83
2022-10-25T20:58:36.973Z,40.25
2022-10-25T21:01:04.299Z,45.33
2022-10-25T21:03:32.038Z,38.88
2022-10-25T21:06:00.952Z,34.15
2022-10-25T21:08:27.954Z,34.53
2022-10-25T21:10:56.432Z,31.40
2022-10-25T21:13:24.531Z,37.58
2022-10-25T21:15:52.950Z,27.45
2022-10-25T21:18:20.284Z,33.78
2022-10-25T21:20:48.865Z,34.47
2022-10-25T21:23:15.696Z,32.33
2022-10-25T21:25:42.516Z,36.05
2022-10-25T21:28:09.342Z,30.92
2022-10-25T21:30:36.290Z,39.20
2022-10-25T21:33:04.462Z,36.30
2022-10-25T21:35:32.735Z,38.35
2022-10-25T21:37:59.683Z,43.10
2022-10-25T21:40:27.462Z,42.50
2022-10-25T21:42:57.852Z,46.83
2022-10-25T21:45:24.763Z,49.25
2022-10-25T21:47:51.817Z,44.42
2022-10-25T21:50:18.778Z,43.28
2022-10-25T21:52:45.712Z,44.40
2022-10-25T21:55:12.513Z,41.63
2022-10-25T21:57:39.343Z,43.90
2022-10-25T22:00:06.770Z,42.22
2022-10-25T22:02:33.815Z,41.50
2022-10-25T22:05:00.910Z,39.20
2022-10-25T22:07:27.764Z,44.20
2022-10-25T22:09:54.572Z,41.10
2022-10-25T22:12:21.337Z,40.65
2022-10-25T22:14:48.854Z,44.50
2022-10-25T22:17:15.691Z,40.90
2022-10-25T22:19:42.484Z,39.72
2022-10-25T22:22:09.356Z,39.88
2022-10-25T22:24:36.204Z,39.25
2022-10-25T22:27:03.043Z,43.72
2022-10-25T22:29:29.942Z,40.03
2022-10-25T22:33:35.606Z,32.33
2022-10-25T22:36:10.077Z,32.35
2022-10-25T22:38:37.646Z,29.70
2022-10-25T22:41:07.252Z,29.23
2022-10-25T22:43:36.156Z,22.02
2022-10-25T22:46:05.230Z,22.52
2022-10-25T22:48:33.749Z,24.92
2022-10-25T22:51:01.409Z,24.60
2022-10-25T22:53:29.054Z,30.38
2022-10-25T22:56:03.807Z,34.83
2022-10-25T22:58:34.842Z,35.63
2022-10-25T23:03:41.821Z,31.45
2022-10-25T23:06:14.909Z,32.53
2022-10-25T23:08:43.064Z,26.58
2022-10-25T23:11:19.117Z,21.85
2022-10-25T23:13:46.576Z,22.13
2022-10-25T23:16:15.355Z,22.35
2022-10-25T23:18:42.917Z,18.63
2022-10-25T23:21:22.044Z,21.52
2022-10-25T23:23:49.773Z,18.00
2022-10-25T23:26:20.287Z,19.42
2022-10-25T23:28:47.420Z,21.33
2022-10-25T23:31:14.905Z,26.20
2022-10-25T23:33:42.657Z,24.48
2022-10-25T23:36:15.719Z,18.05
2022-10-25T23:38:46.588Z,22.35
2022-10-25T23:41:13.826Z,22.55
2022-10-25T23:43:40.682Z,25.10
2022-10-25T23:46:08.653Z,22.85
2022-10-25T23:48:36.159Z,28.00
2022-10-25T23:51:06.312Z,21.98
2022-10-25T23:53:33.851Z,23.20
2022-10-25T23:56:01.232Z,26.30
2022-10-25T23:58:28.204Z,27.50
